createdAt,value
2023-05-19T00:00:51.505Z,14.30
2023-05-19T00:04:41.987Z,14.30
2023-05-19T00:08:31.151Z,14.30
2023-05-19T00:12:20.671Z,14.24
2023-05-19T00:16:10.253Z,14.20
2023-05-19T00:19:59.625Z,14.18
2023-05-19T00:23:48.834Z,14.10
2023-05-19T00:27:38.093Z,14.10
2023-05-19T00:31:27.200Z,14.10
2023-05-19T00:35:09.716Z,14.10
2023-05-19T00:38:59.127Z,14.00
2023-05-19T00:42:48.152Z,14.00
2023-05-19T00:46:32.237Z,14.00
2023-05-19T00:50:21.477Z,14.00
2023-05-19T00:54:10.640Z,14.00
2023-05-19T00:57:59.676Z,13.90
2023-05-19T01:01:48.793Z,14.00
2023-05-19T01:05:38.025Z,14.00
2023-05-19T01:09:27.092Z,14.00
2023-05-19T01:13:15.172Z,13.90
2023-05-19T01:17:04.341Z,13.90
2023-05-19T01:20:58.096Z,13.90
2023-05-19T01:24:51.682Z,13.90
2023-05-19T01:28:39.310Z,13.90
2023-05-19T01:32:28.602Z,13.90
2023-05-19T01:36:17.545Z,13.80
2023-05-19T01:40:06.481Z,13.80
2023-05-19T01:43:58.313Z,13.80
2023-05-19T01:47:47.535Z,13.80
2023-05-19T01:51:36.878Z,13.70
2023-05-19T01:55:25.918Z,13.70
2023-05-19T01:59:26.100Z,13.70
2023-05-19T02:03:39.860Z,13.70
2023-05-19T02:07:29.023Z,13.70
2023-05-19T02:11:26.927Z,13.70
2023-05-19T02:15:15.978Z,13.70
2023-05-19T02:19:05.423Z,13.70
2023-05-19T02:22:54.477Z,13.70
2023-05-19T02:26:43.420Z,13.70
2023-05-19T02:30:32.746Z,13.70
2023-05-19T02:34:22.340Z,13.70
2023-05-19T02:38:11.613Z,13.80
2023-05-19T02:42:00.766Z,13.80
2023-05-19T02:45:42.535Z,13.70
2023-05-19T02:49:31.616Z,13.70
2023-05-19T02:53:20.623Z,13.70
2023-05-19T02:57:11.680Z,13.70
2023-05-19T03:01:00.780Z,13.70
2023-05-19T03:04:49.911Z,13.60
2023-05-19T03:08:40.761Z,13.60
2023-05-19T03:12:31.389Z,13.64
2023-05-19T03:16:13.920Z,13.60
2023-05-19T03:19:56.685Z,13.60
2023-05-19T03:23:45.793Z,13.60
2023-05-19T03:27:33.761Z,13.60
2023-05-19T03:31:22.783Z,13.60
2023-05-19T03:35:11.974Z,13.60
2023-05-19T03:39:01.037Z,13.64
2023-05-19T03:42:50.061Z,13.70
2023-05-19T03:46:39.111Z,13.70
2023-05-19T03:50:31.346Z,13.80
2023-05-19T03:54:20.932Z,13.80
2023-05-19T03:58:10.144Z,13.80
2023-05-19T04:01:59.099Z,13.90
2023-05-19T04:05:48.155Z,14.00
2023-05-19T04:09:37.329Z,14.00
2023-05-19T04:13:26.657Z,14.00
2023-05-19T04:17:16.011Z,14.00
2023-05-19T04:21:05.407Z,14.00
2023-05-19T04:24:54.440Z,14.10
2023-05-19T04:28:43.424Z,14.20
2023-05-19T04:32:32.540Z,14.20
2023-05-19T04:36:21.817Z,14.30
2023-05-19T04:40:10.797Z,14.50
2023-05-19T04:44:00.094Z,14.50
2023-05-19T04:47:49.495Z,14.50
2023-05-19T04:51:38.676Z,14.52
2023-05-19T04:55:27.943Z,14.60
2023-05-19T04:59:16.997Z,14.60
2023-05-19T05:03:06.318Z,14.60
2023-05-19T05:06:55.552Z,14.66
2023-05-19T05:10:44.789Z,14.70
2023-05-19T05:14:34.834Z,14.78
2023-05-19T05:18:24.260Z,14.80
2023-05-19T05:22:13.650Z,14.90
2023-05-19T05:26:02.421Z,14.90
2023-05-19T05:28:53.641Z,15.00
2023-05-19T05:32:46.220Z,15.10
2023-05-19T05:36:36.145Z,15.10
2023-05-19T05:40:25.437Z,15.20
2023-05-19T05:44:16.379Z,15.20
2023-05-19T05:48:05.656Z,15.30
2023-05-19T05:55:51.329Z,15.40
2023-05-19T05:59:40.368Z,15.40
2023-05-19T06:03:29.425Z,15.46
2023-05-19T06:07:18.720Z,15.58
2023-05-19T06:11:08.089Z,15.68
2023-05-19T06:14:57.132Z,15.80
2023-05-19T06:18:53.047Z,15.90
2023-05-19T06:22:42.111Z,15.92
2023-05-19T06:26:31.230Z,16.10
2023-05-19T06:30:20.355Z,16.16
2023-05-19T06:34:09.457Z,16.30
2023-05-19T06:37:58.700Z,16.40
2023-05-19T06:41:47.835Z,16.44
2023-05-19T06:45:36.874Z,16.60
2023-05-19T06:49:25.943Z,16.80
2023-05-19T06:53:02.086Z,16.90
2023-05-19T06:56:36.636Z,17.00
2023-05-19T07:00:18.712Z,17.10
2023-05-19T07:03:51.368Z,17.10
2023-05-19T07:07:40.451Z,17.00
2023-05-19T07:11:12.843Z,17.10
2023-05-19T07:14:54.637Z,17.20
2023-05-19T07:18:43.987Z,17.20
2023-05-19T07:22:33.132Z,17.30
2023-05-19T07:26:22.401Z,17.38
2023-05-19T07:30:10.921Z,17.50
2023-05-19T07:34:00.150Z,17.60
2023-05-19T07:37:49.120Z,17.80
2023-05-19T07:41:38.048Z,17.90
2023-05-19T07:45:27.174Z,18.00
2023-05-19T07:49:15.986Z,18.20
2023-05-19T07:52:52.486Z,18.30
2023-05-19T07:56:22.784Z,18.40
2023-05-19T08:00:12.019Z,18.40
2023-05-19T08:03:23.067Z,18.50
2023-05-19T08:07:12.109Z,18.60
2023-05-19T08:10:15.648Z,18.80
2023-05-19T08:13:54.618Z,19.00
2023-05-19T08:17:26.615Z,19.10
2023-05-19T08:21:15.704Z,19.30
2023-05-19T08:25:04.967Z,19.30
2023-05-19T08:28:36.705Z,19.40
2023-05-19T08:32:09.294Z,19.52
2023-05-19T08:35:48.959Z,19.60
2023-05-19T08:39:00.974Z,19.74
2023-05-19T08:42:30.009Z,19.82
2023-05-19T08:46:18.794Z,19.90
2023-05-19T08:50:08.445Z,20.00
2023-05-19T08:53:32.456Z,20.10
2023-05-19T08:57:24.097Z,20.20
2023-05-19T09:01:13.726Z,20.20
2023-05-19T09:04:42.132Z,20.20
2023-05-19T09:08:21.827Z,20.40
2023-05-19T09:12:10.945Z,20.50
2023-05-19T09:15:52.793Z,20.50
2023-05-19T09:19:27.566Z,20.50
2023-05-19T09:23:22.733Z,20.60
2023-05-19T09:27:00.469Z,20.70
2023-05-19T09:30:39.635Z,20.80
2023-05-19T09:33:48.222Z,20.82
2023-05-19T09:37:27.704Z,20.78
2023-05-19T09:41:05.702Z,20.70
2023-05-19T09:44:28.981Z,20.70
2023-05-19T09:47:58.021Z,20.70
2023-05-19T09:51:35.777Z,20.70
2023-05-19T09:55:08.110Z,20.80
2023-05-19T09:58:13.969Z,20.90
2023-05-19T10:01:48.457Z,20.80
2023-05-19T10:05:00.365Z,20.76
2023-05-19T10:08:07.366Z,20.80
2023-05-19T10:11:35.200Z,20.80
2023-05-19T10:14:17.862Z,20.80
2023-05-19T10:17:29.533Z,20.90
2023-05-19T10:21:00.255Z,20.90
2023-05-19T10:24:21.397Z,20.90
2023-05-19T10:27:32.057Z,21.08
2023-05-19T10:30:43.926Z,21.20
2023-05-19T10:34:12.829Z,21.28
2023-05-19T10:37:20.808Z,21.30
2023-05-19T10:40:22.580Z,21.40
2023-05-19T10:43:59.626Z,21.42
2023-05-19T10:46:56.760Z,21.50
2023-05-19T10:49:46.134Z,21.60
2023-05-19T10:53:00.218Z,21.70
2023-05-19T10:56:12.760Z,21.70
2023-05-19T10:59:25.658Z,21.70
2023-05-19T11:02:58.301Z,21.90
2023-05-19T11:05:35.359Z,22.40
2023-05-19T11:08:22.614Z,22.80
2023-05-19T11:11:23.450Z,23.20
2023-05-19T11:14:05.961Z,23.68
2023-05-19T11:17:37.784Z,24.00
2023-05-19T11:20:30.995Z,24.24
2023-05-19T11:23:26.033Z,24.48
2023-05-19T11:25:57.095Z,24.60
2023-05-19T11:28:34.222Z,24.86
2023-05-19T11:31:12.502Z,24.96
2023-05-19T11:33:54.219Z,25.20
2023-05-19T11:36:28.986Z,25.22
2023-05-19T11:39:03.792Z,25.38
2023-05-19T11:41:44.528Z,25.50
2023-05-19T11:44:55.389Z,25.70
2023-05-19T11:47:26.707Z,25.90
2023-05-19T11:49:56.781Z,26.00
2023-05-19T11:52:27.483Z,26.02
2023-05-19T11:54:56.972Z,26.30
2023-05-19T11:57:31.096Z,26.38
2023-05-19T12:00:02.989Z,26.50
2023-05-19T12:02:33.593Z,26.60
2023-05-19T12:05:02.091Z,26.72
2023-05-19T12:07:33.635Z,26.80
2023-05-19T12:10:01.768Z,27.00
2023-05-19T12:12:30.130Z,27.02
2023-05-19T12:14:58.383Z,27.24
2023-05-19T12:17:29.789Z,27.20
2023-05-19T12:19:58.062Z,27.06
2023-05-19T12:22:29.278Z,26.96
2023-05-19T12:25:02.122Z,26.62
2023-05-19T12:27:37.551Z,26.50
2023-05-19T12:30:09.578Z,26.40
2023-05-19T12:32:41.425Z,26.30
2023-05-19T12:35:15.504Z,26.34
2023-05-19T12:37:49.430Z,26.28
2023-05-19T12:40:34.283Z,26.10
2023-05-19T12:43:05.581Z,26.10
2023-05-19T12:46:09.117Z,26.10
2023-05-19T12:48:54.977Z,26.10
2023-05-19T12:51:35.946Z,25.92
2023-05-19T12:54:32.242Z,25.84
2023-05-19T12:57:16.266Z,25.78
2023-05-19T13:00:10.989Z,25.70
2023-05-19T13:03:04.929Z,25.70
2023-05-19T13:05:53.515Z,25.80
2023-05-19T13:08:47.428Z,26.00
2023-05-19T13:11:36.014Z,26.10
2023-05-19T13:14:27.250Z,26.20
2023-05-19T13:17:20.720Z,26.50
2023-05-19T13:19:52.490Z,26.14
2023-05-19T13:22:32.621Z,26.00
2023-05-19T13:25:10.359Z,25.76
2023-05-19T13:28:03.948Z,25.46
2023-05-19T13:31:19.230Z,25.24
2023-05-19T13:34:10.710Z,24.68
2023-05-19T13:37:39.931Z,23.72
2023-05-19T13:41:20.570Z,23.10
2023-05-19T13:44:49.372Z,22.40
2023-05-19T13:48:38.843Z,21.70
2023-05-19T13:52:29.059Z,21.00
2023-05-19T13:55:43.171Z,20.50
2023-05-19T13:59:25.102Z,20.30
2023-05-19T14:03:04.418Z,20.10
2023-05-19T14:06:53.670Z,19.90
2023-05-19T14:10:42.662Z,19.90
2023-05-19T14:14:31.109Z,19.90
2023-05-19T14:18:20.299Z,19.90
2023-05-19T14:22:09.492Z,19.86
2023-05-19T14:25:58.536Z,19.70
2023-05-19T14:29:47.685Z,19.70
2023-05-19T14:33:37.108Z,19.78
2023-05-19T14:37:26.240Z,19.80
2023-05-19T14:41:17.563Z,20.00
2023-05-19T14:45:06.642Z,20.06
2023-05-19T14:48:46.950Z,20.00
2023-05-19T14:51:43.977Z,19.98
2023-05-19T14:55:26.093Z,20.00
2023-05-19T14:59:15.123Z,20.00
2023-05-19T15:03:04.479Z,20.10
2023-05-19T15:07:05.766Z,20.30
2023-05-19T15:10:41.086Z,20.60
2023-05-19T15:14:31.079Z,20.70
2023-05-19T15:17:54.920Z,20.80
2023-05-19T15:21:27.288Z,20.98
2023-05-19T15:24:48.318Z,21.10
2023-05-19T15:28:20.170Z,21.20
2023-05-19T15:32:02.680Z,21.30
2023-05-19T15:35:42.020Z,21.40
2023-05-19T15:39:11.460Z,21.46
2023-05-19T15:42:39.457Z,21.60
2023-05-19T15:46:11.798Z,21.70
2023-05-19T15:50:01.048Z,21.80
2023-05-19T15:53:21.182Z,21.90
2023-05-19T15:56:47.806Z,21.88
2023-05-19T16:00:20.066Z,21.80
2023-05-19T16:03:37.509Z,21.70
2023-05-19T16:07:09.435Z,21.60
2023-05-19T16:10:57.483Z,21.42
2023-05-19T16:14:35.343Z,21.30
2023-05-19T16:18:08.541Z,21.20
2023-05-19T16:21:39.327Z,21.20
2023-05-19T16:25:03.349Z,21.08
2023-05-19T16:28:51.582Z,20.98
2023-05-19T16:32:28.398Z,20.82
2023-05-19T16:35:57.278Z,20.70
2023-05-19T16:39:29.235Z,20.60
2023-05-19T16:43:18.428Z,20.60
2023-05-19T16:47:00.190Z,20.46
2023-05-19T16:50:49.396Z,20.40
2023-05-19T16:54:38.484Z,20.30
2023-05-19T16:58:28.908Z,20.20
2023-05-19T17:02:01.440Z,20.20
2023-05-19T17:05:51.233Z,20.10
2023-05-19T17:09:40.652Z,20.00
2023-05-19T17:13:29.873Z,19.80
2023-05-19T17:17:18.855Z,19.68
2023-05-19T17:21:08.110Z,19.50
2023-05-19T17:24:57.237Z,19.30
2023-05-19T17:28:39.337Z,19.10
2023-05-19T17:32:28.652Z,19.00
2023-05-19T17:36:17.917Z,18.82
2023-05-19T17:40:10.797Z,18.66
2023-05-19T17:43:52.522Z,18.50
2023-05-19T17:47:41.556Z,18.30
2023-05-19T17:51:30.694Z,18.14
2023-05-19T17:55:01.496Z,18.02
2023-05-19T17:58:50.948Z,17.90
2023-05-19T18:02:40.493Z,17.80
2023-05-19T18:06:13.194Z,17.88
2023-05-19T18:09:45.238Z,17.90
2023-05-19T18:13:34.306Z,17.90
2023-05-19T18:17:16.808Z,18.00
2023-05-19T18:21:06.175Z,18.08
2023-05-19T18:24:55.224Z,18.10
2023-05-19T18:28:44.612Z,18.10
2023-05-19T18:32:24.507Z,18.10
2023-05-19T18:36:13.691Z,18.10
2023-05-19T18:41:03.494Z,18.10
2023-05-19T18:44:12.328Z,18.10
2023-05-19T18:47:44.312Z,18.00
2023-05-19T18:51:34.844Z,18.00
2023-05-19T18:55:24.042Z,18.00
2023-05-19T18:59:12.281Z,17.98
2023-05-19T19:03:01.675Z,17.90
2023-05-19T19:06:57.064Z,17.90
2023-05-19T19:10:46.419Z,17.82
2023-05-19T19:14:35.407Z,17.80
2023-05-19T19:18:25.369Z,17.80
2023-05-19T19:22:13.321Z,17.90
2023-05-19T19:26:02.525Z,17.90
2023-05-19T19:29:51.673Z,17.90
2023-05-19T19:33:36.401Z,17.86
2023-05-19T19:37:25.959Z,17.88
2023-05-19T19:40:56.025Z,17.90
2023-05-19T19:44:45.461Z,17.84
2023-05-19T19:48:34.536Z,17.80
2023-05-19T19:52:19.822Z,17.80
2023-05-19T19:56:01.949Z,17.70
2023-05-19T19:59:51.216Z,17.60
2023-05-19T20:03:33.783Z,17.50
2023-05-19T20:07:23.557Z,17.40
2023-05-19T20:11:12.665Z,17.30
2023-05-19T20:15:01.928Z,17.20
2023-05-19T20:18:31.000Z,17.10
2023-05-19T20:22:20.062Z,17.08
2023-05-19T20:26:13.046Z,17.00
2023-05-19T20:30:05.279Z,16.90
2023-05-19T20:33:35.998Z,16.80
2023-05-19T20:37:25.120Z,16.70
2023-05-19T20:41:14.375Z,16.60
2023-05-19T20:44:58.518Z,16.40
2023-05-19T20:48:40.737Z,16.26
2023-05-19T20:52:23.121Z,16.10
2023-05-19T20:56:12.341Z,16.00
2023-05-19T21:00:01.634Z,15.90
2023-05-19T21:03:40.220Z,15.70
2023-05-19T21:07:29.485Z,15.60
2023-05-19T21:11:18.158Z,15.60
2023-05-19T21:15:07.334Z,15.50
2023-05-19T21:18:56.561Z,15.32
2023-05-19T21:22:45.650Z,15.24
2023-05-19T21:26:35.096Z,15.22
2023-05-19T21:30:24.556Z,15.20
2023-05-19T21:34:04.097Z,15.20
2023-05-19T21:37:53.235Z,15.20
2023-05-19T21:41:42.612Z,15.20
2023-05-19T21:45:31.826Z,15.20
2023-05-19T21:49:20.629Z,15.10
2023-05-19T21:53:09.989Z,15.00
2023-05-19T21:56:59.349Z,14.92
2023-05-19T22:00:48.769Z,14.82
2023-05-19T22:04:35.968Z,14.80
2023-05-19T22:08:25.808Z,14.70
2023-05-19T22:12:19.538Z,14.60
2023-05-19T22:16:11.547Z,14.60
2023-05-19T22:19:51.769Z,14.50
2023-05-19T22:23:41.169Z,14.50
2023-05-19T22:27:21.875Z,14.48
2023-05-19T22:31:10.899Z,14.40
2023-05-19T22:34:59.946Z,14.30
2023-05-19T22:38:49.073Z,14.20
2023-05-19T22:42:38.276Z,14.10
2023-05-19T22:47:03.527Z,14.10
2023-05-19T22:50:36.901Z,14.00
2023-05-19T22:54:19.763Z,13.90
2023-05-19T22:58:09.022Z,13.90
2023-05-19T23:01:48.664Z,13.80
2023-05-19T23:05:37.960Z,13.70
2023-05-19T23:09:27.211Z,13.80
2023-05-19T23:13:16.265Z,13.70
2023-05-19T23:17:05.636Z,13.60
2023-05-19T23:20:54.826Z,13.60
2023-05-19T23:24:44.237Z,13.60
2023-05-19T23:28:33.406Z,13.50
2023-05-19T23:32:22.488Z,13.50
2023-05-19T23:36:11.750Z,13.40
2023-05-19T23:39:53.843Z,13.40
2023-05-19T23:43:42.877Z,13.40
2023-05-19T23:47:32.036Z,13.30
2023-05-19T23:51:13.321Z,13.28
2023-05-19T23:55:02.510Z,13.20
2023-05-19T23:58:51.632Z,13.10
